ADDS METAR Data INFO
IDs: Format: Raw Decoded Include TAF

Data at: 0627 UTC 15 Dec 2017

KLAS 150556Z 31006KT 10SM FEW250 11/M06 A3029 RMK AO2 SLP251 T01111061 10183 20100 53015
KLAS 150456Z 27004KT 10SM FEW250 12/M06 A3026 RMK AO2 SLP243 T01171061
KLAS 150356Z 02005KT 10SM FEW250 12/M06 A3025 RMK AO2 SLP239 T01221061
KLAS 150256Z 22003KT 10SM FEW250 14/M06 A3024 RMK AO2 SLP236 T01441061 53016
KLAS 150156Z 03007KT 10SM FEW250 16/M07 A3022 RMK AO2 SLP227 T01561067
KLAS 150056Z 04009KT 10SM FEW250 17/M07 A3021 RMK AO2 SLP222 T01721072
KLAS 142356Z 03012KT 10SM FEW250 18/M08 A3019 RMK AO2 SLP216 T01831078 10200 20167 55001
KLAS 142256Z 06015KT 10SM CLR 19/M07 A3019 RMK AO2 SLP214 T01891072
KLAS 142156Z 05013KT 10SM CLR 19/M07 A3019 RMK AO2 SLP217 T01941067
KLAS 142056Z 01011KT 10SM CLR 19/M06 A3020 RMK AO2 SLP218 T01891061 58017
KLAS 141956Z 02014KT 10SM CLR 18/M06 A3022 RMK AO2 SLP228 T01781056
KLAS 141856Z 01013KT 10SM CLR 18/M06 A3024 RMK AO2 SLP234 T01781056
KLAS 141756Z 01019KT 10SM CLR 17/M06 A3025 RMK AO2 SLP237 OCNL VCBLDU T01671061 10167 20106 53021
KLAS 141656Z 05013KT 10SM CLR 15/M08 A3023 RMK AO2 SLP233 HZ VC ALQDS T01501078
KLAS 141556Z 36013KT 10SM CLR 14/M09 A3018 RMK AO2 SLP216 HZ VC ALQDS T01391089
KLAS 141456Z 02014KT 10SM CLR 12/M11 A3018 RMK AO2 SLP215 HZ NW-NE T01221111 51026
KLAS 141356Z 01017KT 10SM CLR 12/M13 A3016 RMK AO2 SLP204 T01221133
KLAS 141256Z 03008KT 10SM CLR 11/M16 A3013 RMK AO2 SLP195 T01061156
KLAS 141156Z 03009KT 10SM CLR 12/M16 A3010 RMK AO2 SLP182 T01221156 10133 20072 51026
KLAS 141056Z 03009KT 10SM CLR 11/M13 A3008 RMK AO2 SLP175 T01061133
KLAS 140956Z 18006KT 10SM CLR 08/M13 A3004 RMK AO2 SLP165 T00781133
KLAS 140856Z 22003KT 10SM FEW250 10/M13 A3002 RMK AO2 SLP156 T01001133 53009
KLAS 140756Z 20003KT 10SM FEW250 10/M12 A3000 RMK AO2 SLP150 T01001122 402170056
KLAS 140656Z 00000KT 10SM FEW250 11/M13 A2999 RMK AO2 SLP148 T01111133
KLAS 140556Z 29004KT 10SM FEW250 11/M15 A2999 RMK AO2 SLP148 T01111150 10206 20111 53006
KLAS 140456Z 21007KT 10SM FEW250 12/M15 A2997 RMK AO2 SLP142 T01171150
KLAS 140356Z 22005KT 10SM FEW250 12/M11 A2997 RMK AO2 SLP144 T01171106
KLAS 140256Z 26005KT 10SM SCT250 14/M11 A2997 RMK AO2 SLP146 T01391106 55005
KLAS 140156Z 00000KT 10SM BKN250 17/M11 A2996 RMK AO2 SLP140 T01671111
KLAS 140056Z 11003KT 10SM BKN250 18/M09 A2996 RMK AO2 SLP139 T01781089
KLAS 132356Z 00000KT 10SM SCT250 21/M13 A2999 RMK AO2 SLP146 T02061128 10217 20150 56020
KLAS 132256Z 00000KT 10SM FEW250 21/M13 A3000 RMK AO2 SLP149 T02111133
KLAS 132156Z 00000KT 10SM FEW250 21/M13 A3001 RMK AO2 SLP153 T02061133
KLAS 132056Z 00000KT 10SM FEW250 20/M14 A3005 RMK AO2 SLP167 T02001139 56034
KLAS 131956Z 00000KT 10SM CLR 19/M14 A3008 RMK AO2 SLP177 T01891139
KLAS 131856Z 00000KT 10SM CLR 17/M14 A3012 RMK AO2 SLP194 T01671139